Time;durP1;ratioP1;P1;durP2;ratioP2;P2;SDS_P1;SDS_P2;PMS_P1;PMS_P2;Temp;Humidity;BMP_temperature;BMP_pressure;BME280_temperature;BME280_humidity;BME280_pressure;Samples;Min_cycle;Max_cycle;Signal;HPM_P1;HPM_P2
2022/03/31 00:01:42;;;;;;;30.75;9.07;;;;;;;16.88;49.88;99876.66;4977088;28;20033;-83
2022/03/31 00:04:07;;;;;;;36.67;7.80;;;;;;;16.71;50.43;99861.53;4978426;28;20026;-82
2022/03/31 00:06:33;;;;;;;33.50;9.98;;;;;;;16.51;50.30;99823.16;4977473;28;20023;-83
2022/03/31 00:08:58;;;;;;;28.85;8.88;;;;;;;16.42;51.29;99845.13;4976305;28;20105;-83
2022/03/31 00:11:24;;;;;;;34.03;8.43;;;;;;;16.57;51.27;99873.22;4976688;28;20101;-82
2022/03/31 00:13:50;;;;;;;29.60;8.45;;;;;;;16.47;51.58;99851.69;4976257;28;20173;-83
2022/03/31 00:16:15;;;;;;;43.35;9.13;;;;;;;16.50;51.66;99872.22;4976780;28;20101;-83
2022/03/31 00:18:41;;;;;;;26.52;8.57;;;;;;;16.47;52.07;99859.84;4976234;28;20030;-84
2022/03/31 00:21:06;;;;;;;34.03;9.65;;;;;;;16.51;51.82;99841.34;4976868;28;20070;-84
2022/03/31 00:23:36;;;;;;;22.20;8.77;;;;;;;16.26;51.95;99817.09;4976741;28;20035;-82
2022/03/31 00:26:05;;;;;;;35.15;9.57;;;;;;;16.55;51.85;99848.09;4981873;28;20023;-84
2022/03/31 00:28:30;;;;;;;33.67;9.05;;;;;;;16.51;51.87;99841.34;4978439;28;20039;-82
2022/03/31 00:30:56;;;;;;;29.30;8.43;;;;;;;16.54;51.81;99827.41;4976304;28;20497;-83
2022/03/31 00:33:21;;;;;;;29.63;7.82;;;;;;;16.31;51.78;99790.25;4976429;28;20468;-84
2022/03/31 00:35:47;;;;;;;28.08;9.00;;;;;;;16.62;51.95;99836.34;4976500;28;20393;-83
2022/03/31 00:38:13;;;;;;;37.70;8.60;;;;;;;16.52;51.58;99810.44;4975910;28;20353;-85
2022/03/31 00:40:39;;;;;;;24.35;7.07;;;;;;;16.19;51.97;99767.28;4976128;28;20031;-85
2022/03/31 00:43:05;;;;;;;26.42;8.02;;;;;;;16.50;52.11;99818.78;4975650;28;20057;-84
2022/03/31 00:45:34;;;;;;;31.60;8.60;;;;;;;16.24;52.19;99772.16;4975960;28;20531;-84
2022/03/31 00:48:01;;;;;;;34.92;8.50;;;;;;;16.54;52.26;99809.28;4976780;28;20465;-84
2022/03/31 00:50:28;;;;;;;32.08;8.90;;;;;;;16.59;52.04;99811.44;4976536;28;20034;-83
2022/03/31 00:52:54;;;;;;;29.65;8.80;;;;;;;16.56;52.23;99799.06;4976703;28;20169;-83
2022/03/31 00:55:21;;;;;;;35.75;8.85;;;;;;;16.50;52.39;99815.19;4976362;28;20062;-82
2022/03/31 00:57:48;;;;;;;42.72;9.10;;;;;;;16.49;52.45;99799.94;4983652;28;20054;-82
2022/03/31 01:00:17;;;;;;;30.88;8.38;;;;;;;16.41;52.21;99800.88;4980516;28;20050;-83
2022/03/31 01:02:44;;;;;;;27.80;8.68;;;;;;;16.23;53.01;99784.91;4976024;28;20038;-83
2022/03/31 01:05:11;;;;;;;37.47;9.52;;;;;;;16.31;53.08;99790.25;4975626;28;20041;-83
2022/03/31 01:07:38;;;;;;;24.05;9.07;;;;;;;16.28;53.24;99798.75;4975138;28;20031;-84
2022/03/31 01:10:05;;;;;;;41.30;9.48;;;;;;;16.31;53.50;99792.13;4975803;28;20023;-82
2022/03/31 01:12:31;;;;;;;33.42;8.32;;;;;;;16.30;53.33;99796.69;4976027;28;20039;-83
2022/03/31 01:15:08;;;;;;;35.30;8.27;;;;;;;16.31;53.17;99800.25;4974486;28;20449;-83
2022/03/31 01:17:34;;;;;;;37.75;9.18;;;;;;;16.20;53.28;99774.41;4975772;28;20045;-82
2022/03/31 01:20:00;;;;;;;33.95;8.38;;;;;;;15.92;53.53;99742.56;4979957;28;20055;-82
2022/03/31 01:22:29;;;;;;;22.70;8.30;;;;;;;15.88;53.41;99736.66;4988048;28;20019;-83
2022/03/31 01:24:54;;;;;;;28.60;9.20;;;;;;;16.11;54.06;99807.19;4988684;28;20057;-81
2022/03/31 01:27:19;;;;;;;33.08;9.32;;;;;;;15.86;54.78;99789.41;4982352;28;20424;-82
2022/03/31 01:29:45;;;;;;;52.55;11.80;;;;;;;15.84;54.89;99805.81;4974586;28;20022;-84
2022/03/31 01:32:11;;;;;;;37.50;11.45;;;;;;;15.69;55.14;99785.91;4974287;28;20031;-83
2022/03/31 01:34:37;;;;;;;36.72;9.55;;;;;;;15.78;55.11;99798.41;4996667;28;20034;-83
2022/03/31 01:37:04;;;;;;;42.55;9.45;;;;;;;15.70;55.61;99803.88;4975732;28;20038;-83
2022/03/31 01:39:30;;;;;;;23.63;10.95;;;;;;;15.62;55.81;99790.38;4975280;28;20022;-83
2022/03/31 01:41:56;;;;;;;31.40;8.98;;;;;;;15.39;56.23;99746.06;4975234;28;20035;-84
2022/03/31 01:44:22;;;;;;;38.58;10.02;;;;;;;15.56;56.15;99769.41;4974726;28;20615;-84
2022/03/31 01:46:48;;;;;;;34.40;9.25;;;;;;;15.62;56.50;99798.53;4974649;28;20094;-83
2022/03/31 01:49:14;;;;;;;35.47;9.98;;;;;;;15.61;56.31;99797.66;4975307;28;20065;-84
2022/03/31 01:51:39;;;;;;;35.83;9.65;;;;;;;15.13;56.53;99724.72;4975022;28;20120;-83
2022/03/31 01:54:05;;;;;;;26.90;8.82;;;;;;;15.54;56.66;99798.53;4975269;28;20109;-83
2022/03/31 01:56:31;;;;;;;27.25;9.27;;;;;;;15.60;56.84;99795.13;4974696;28;20030;-84
2022/03/31 01:58:56;;;;;;;26.10;9.32;;;;;;;15.22;56.91;99740.75;4975211;28;20031;-83
2022/03/31 02:01:22;;;;;;;31.55;9.52;;;;;;;15.55;56.86;99778.56;4974868;28;20408;-83
2022/03/31 02:03:47;;;;;;;30.42;9.00;;;;;;;15.66;56.46;99786.28;4975438;28;20481;-83
2022/03/31 02:06:13;;;;;;;20.75;8.35;;;;;;;15.70;56.52;99795.75;4975319;28;20019;-83
2022/03/31 02:08:38;;;;;;;30.77;9.70;;;;;;;15.54;56.40;99775.00;4975165;28;20023;-83
2022/03/31 02:11:03;;;;;;;35.20;8.65;;;;;;;15.66;56.87;99791.69;4975476;28;20309;-83
2022/03/31 02:13:29;;;;;;;31.83;9.25;;;;;;;15.60;57.07;99792.41;4974806;28;20412;-83
2022/03/31 02:15:54;;;;;;;32.92;7.93;;;;;;;15.59;57.12;99797.00;4974959;28;20023;-83
2022/03/31 02:18:20;;;;;;;23.40;9.73;;;;;;;15.63;56.55;99775.78;4975384;28;20035;-83
2022/03/31 02:20:47;;;;;;;34.70;9.15;;;;;;;15.64;56.42;99766.66;4974833;28;20025;-83
2022/03/31 02:23:13;;;;;;;35.20;10.38;;;;;;;15.72;56.25;99774.72;4974719;28;20062;-83
2022/03/31 02:25:39;;;;;;;41.00;10.27;;;;;;;15.80;56.32;99782.81;4975520;28;20019;-83
2022/03/31 02:28:05;;;;;;;29.92;8.43;;;;;;;15.77;56.13;99778.59;4974652;28;20027;-83
2022/03/31 02:30:31;;;;;;;33.65;9.98;;;;;;;15.58;55.80;99729.41;4977465;28;20022;-83
2022/03/31 02:32:59;;;;;;;32.72;7.80;;;;;;;15.76;55.58;99776.06;4983963;28;20034;-82
2022/03/31 02:35:25;;;;;;;31.35;8.95;;;;;;;15.75;55.86;99777.06;4993015;28;20031;-82
2022/03/31 02:37:50;;;;;;;38.55;9.57;;;;;;;15.65;55.71;99758.34;4980631;28;20086;-83
2022/03/31 02:40:16;;;;;;;24.80;7.93;;;;;;;15.75;55.78;99769.78;4978913;28;20027;-83
2022/03/31 02:42:41;;;;;;;30.92;9.18;;;;;;;15.41;55.79;99723.19;4978519;28;20050;-83
2022/03/31 02:45:07;;;;;;;24.45;8.95;;;;;;;15.76;55.90;99776.06;4979511;28;20030;-84
2022/03/31 02:47:35;;;;;;;42.75;8.43;;;;;;;15.74;55.57;99767.28;4979490;28;20066;-85
2022/03/31 02:50:01;;;;;;;34.20;9.20;;;;;;;15.68;56.11;99781.53;4984352;28;20449;-81
2022/03/31 02:55:24;;;;;;;30.55;10.15;;;;;;;15.73;55.95;99765.56;4988111;28;20023;-83
2022/03/31 02:55:30;;;;;;;34.13;9.32;;;;;;;15.60;55.80;99732.78;4986686;28;20089;-82
2022/03/31 02:58:01;;;;;;;34.10;9.68;;;;;;;15.81;55.51;99768.22;4977884;28;20023;-84
2022/03/31 03:00:28;;;;;;;35.35;8.98;;;;;;;15.79;55.43;99764.84;4977910;28;20037;-84
2022/03/31 03:02:54;;;;;;;34.75;8.35;;;;;;;15.88;55.29;99766.50;4977815;28;20022;-83
2022/03/31 03:05:20;;;;;;;40.60;10.18;;;;;;;15.91;55.14;99752.56;4978811;28;20086;-82
2022/03/31 03:07:45;;;;;;;25.35;8.77;;;;;;;15.92;55.12;99737.16;4982157;28;20074;-82
2022/03/31 03:10:11;;;;;;;37.97;10.10;;;;;;;15.70;55.01;99703.59;4978576;28;20545;-83
2022/03/31 03:12:36;;;;;;;46.15;11.07;;;;;;;16.01;54.95;99761.31;4978090;28;20485;-84
2022/03/31 03:15:03;;;;;;;35.97;9.80;;;;;;;16.00;54.98;99770.47;4977767;28;20062;-83
2022/03/31 03:17:29;;;;;;;39.05;9.60;;;;;;;16.01;55.11;99780.31;4978005;28;20027;-83
2022/03/31 03:19:55;;;;;;;24.20;9.05;;;;;;;15.76;54.94;99740.81;4978034;28;20042;-83
2022/03/31 03:22:20;;;;;;;35.70;10.00;;;;;;;16.04;55.08;99779.94;4977789;28;20034;-83
2022/03/31 03:24:47;;;;;;;35.78;9.43;;;;;;;15.67;54.75;99718.34;4991832;28;20007;-81
2022/03/31 03:27:12;;;;;;;42.55;10.15;;;;;;;15.99;55.01;99779.63;4985281;28;20041;-83
2022/03/31 03:29:46;;;;;;;33.90;10.10;;;;;;;15.95;55.04;99780.19;4977204;28;20402;-83
2022/03/31 03:32:13;;;;;;;42.10;10.38;;;;;;;15.84;55.45;99767.88;4977328;28;20044;-83
2022/03/31 03:34:39;;;;;;;48.92;10.38;;;;;;;15.69;55.19;99754.25;4976968;28;20097;-84
2022/03/31 03:37:06;;;;;;;43.60;12.02;;;;;;;15.94;55.26;99798.31;4977653;28;20423;-83
2022/03/31 03:39:32;;;;;;;38.97;10.50;;;;;;;15.93;55.52;99798.50;4977507;28;20023;-84
2022/03/31 03:41:58;;;;;;;31.25;10.68;;;;;;;15.91;55.64;99795.97;4976436;28;20026;-85
2022/03/31 03:44:24;;;;;;;31.05;10.77;;;;;;;15.93;55.38;99803.94;4976746;28;20046;-85
2022/03/31 03:46:50;;;;;;;31.80;9.00;;;;;;;15.77;55.79;99784.03;4967525;28;20030;-83
2022/03/31 03:49:15;;;;;;;42.70;9.65;;;;;;;15.63;55.66;99748.69;4977675;28;20034;-90
2022/03/31 03:51:41;;;;;;;40.55;10.00;;;;;;;15.54;55.56;99738.91;4977571;28;20026;-84
2022/03/31 03:54:06;;;;;;;37.10;9.77;;;;;;;15.92;55.84;99808.50;4977153;28;20035;-85
2022/03/31 03:56:31;;;;;;;26.80;10.68;;;;;;;15.94;55.71;99800.19;4977025;28;20027;-83
2022/03/31 03:58:57;;;;;;;38.97;11.75;;;;;;;15.93;55.86;99776.81;4977418;28;20037;-84
2022/03/31 04:01:22;;;;;;;57.67;11.70;;;;;;;15.95;55.68;99770.19;4959238;28;20026;-81
2022/03/31 04:03:48;;;;;;;42.03;10.93;;;;;;;15.95;55.61;99769.34;4977370;28;20045;-88
2022/03/31 04:06:13;;;;;;;63.63;13.70;;;;;;;15.88;55.67;99758.34;4977091;28;20035;-82
2022/03/31 04:08:39;;;;;;;42.38;11.25;;;;;;;15.83;55.74;99754.50;4978619;28;20027;-85
2022/03/31 04:11:04;;;;;;;64.80;14.50;;;;;;;15.65;56.06;99730.41;4991810;28;20021;-86
2022/03/31 04:13:30;;;;;;;35.70;10.38;;;;;;;15.90;56.19;99767.16;4960760;28;20031;-85
2022/03/31 04:15:55;;;;;;;35.92;10.98;;;;;;;15.90;56.24;99763.63;4975925;28;20035;-82
2022/03/31 04:18:21;;;;;;;42.90;10.15;;;;;;;15.98;55.99;99772.53;4977509;28;20041;-77
2022/03/31 04:20:46;;;;;;;51.35;12.25;;;;;;;15.88;55.91;99747.50;4981674;28;20026;-82
2022/03/31 04:23:11;;;;;;;48.83;13.63;;;;;;;15.89;56.22;99738.38;4966443;28;20106;-81
2022/03/31 04:25:37;;;;;;;59.30;13.60;;;;;;;16.01;56.18;99764.03;4986434;28;20023;-80
2022/03/31 04:28:04;;;;;;;55.90;12.38;;;;;;;15.87;56.13;99732.25;4982297;28;20612;-85
2022/03/31 04:30:29;;;;;;;44.63;12.95;;;;;;;16.07;56.28;99790.44;4961786;28;20034;-86
2022/03/31 04:32:55;;;;;;;37.17;11.10;;;;;;;15.87;56.29;99745.81;4976319;28;20030;-85
2022/03/31 04:35:20;;;;;;;33.33;11.90;;;;;;;16.04;56.33;99773.69;4976482;28;20055;-86
2022/03/31 04:37:46;;;;;;;73.93;16.15;;;;;;;16.04;56.35;99762.81;4976279;28;20571;-88
2022/03/31 04:40:14;;;;;;;92.13;17.05;;;;;;;15.73;56.29;99708.66;4958217;28;20509;-91
2022/03/31 04:42:39;;;;;;;54.13;12.07;;;;;;;16.02;56.33;99754.88;4960688;28;20055;-91
2022/03/31 04:45:05;;;;;;;46.33;12.85;;;;;;;15.85;56.10;99723.47;4959682;28;20525;-93
2022/03/31 04:47:31;;;;;;;57.90;13.13;;;;;;;16.34;56.27;99787.16;4976782;28;20280;-85
2022/03/31 04:49:57;;;;;;;50.95;14.07;;;;;;;16.34;56.23;99781.75;4979747;28;20071;-86
2022/03/31 04:52:23;;;;;;;68.22;14.05;;;;;;;16.04;56.09;99731.13;4981873;28;20023;-88
2022/03/31 04:54:48;;;;;;;45.28;13.13;;;;;;;16.07;55.98;99713.63;4982191;28;20107;-88
2022/03/31 04:57:15;;;;;;;37.55;11.73;;;;;;;15.96;55.91;99714.91;4985656;28;20033;-88
2022/03/31 04:59:41;;;;;;;59.47;13.82;;;;;;;16.00;56.24;99724.38;4963127;28;20023;-88
2022/03/31 05:02:07;;;;;;;79.57;15.48;;;;;;;16.07;56.15;99727.19;4984927;28;20536;-88
2022/03/31 05:04:33;;;;;;;42.67;12.75;;;;;;;16.48;56.03;99788.22;4987793;28;20033;-89
2022/03/31 05:06:59;;;;;;;47.40;13.85;;;;;;;16.47;56.36;99797.41;4973250;28;20026;-88
2022/03/31 05:09:24;;;;;;;38.25;12.93;;;;;;;16.49;56.40;99794.50;4985042;28;20050;-89
2022/03/31 05:11:50;;;;;;;59.42;13.80;;;;;;;16.53;56.40;99790.41;4970460;28;20062;-91
2022/03/31 05:14:15;;;;;;;53.63;14.07;;;;;;;16.55;56.70;99777.53;4966508;28;20027;-85
2022/03/31 05:16:41;;;;;;;69.68;14.32;;;;;;;16.73;56.21;99778.88;4985935;28;20018;-90
2022/03/31 05:19:06;;;;;;;65.47;15.27;;;;;;;16.53;56.45;99744.25;4971397;28;20089;-88
2022/03/31 05:21:32;;;;;;;63.55;15.82;;;;;;;16.86;55.99;99775.53;4961642;28;20031;-86
2022/03/31 05:23:57;;;;;;;52.97;13.43;;;;;;;16.52;55.89;99701.84;4977250;28;20499;-92
2022/03/31 05:26:23;;;;;;;41.15;12.05;;;;;;;16.91;56.01;99764.94;4958627;28;20019;-86
2022/03/31 05:28:48;;;;;;;51.85;13.73;;;;;;;16.81;56.41;99767.09;4976043;28;20054;-87
2022/03/31 05:31:14;;;;;;;51.28;13.73;;;;;;;16.56;56.06;99689.63;4975964;28;20022;-86
2022/03/31 05:33:39;;;;;;;75.30;14.95;;;;;;;17.12;55.57;99758.78;4980387;28;20150;-86
2022/03/31 05:36:05;;;;;;;48.83;12.52;;;;;;;16.86;55.37;99726.63;4985083;28;20027;-84
2022/03/31 05:38:31;;;;;;;41.20;14.38;;;;;;;16.98;55.18;99736.00;4989750;28;20097;-87
2022/03/31 05:40:57;;;;;;;56.10;13.80;;;;;;;17.25;55.24;99786.97;4979340;28;20026;-87
2022/03/31 05:43:22;;;;;;;51.47;13.85;;;;;;;17.25;55.35;99764.38;4973684;28;20051;-79
2022/03/31 05:45:50;;;;;;;66.68;15.13;;;;;;;17.23;55.31;99763.72;4981711;28;20058;-85
2022/03/31 05:48:15;;;;;;;64.85;14.82;;;;;;;17.17;55.34;99762.59;4970423;28;20030;-82
2022/03/31 05:50:41;;;;;;;56.92;13.45;;;;;;;17.16;55.08;99739.19;4986011;28;20081;-82
2022/03/31 05:53:07;;;;;;;56.35;14.30;;;;;;;17.06;54.86;99692.44;4977047;28;20026;-82
2022/03/31 05:55:32;;;;;;;44.75;13.43;;;;;;;17.60;54.80;99765.50;4978981;28;20164;-81
2022/03/31 05:57:58;;;;;;;44.47;13.75;;;;;;;17.52;54.63;99760.13;4987777;28;20054;-85
2022/03/31 06:00:24;;;;;;;66.97;15.90;;;;;;;17.36;54.49;99715.81;4988502;28;20030;-86
2022/03/31 06:02:52;;;;;;;59.25;16.00;;;;;;;17.66;54.57;99751.13;4985910;28;20034;-82
2022/03/31 06:05:19;;;;;;;54.65;13.57;;;;;;;17.68;54.52;99744.47;4975686;28;20062;-81
2022/03/31 06:07:45;;;;;;;59.70;15.60;;;;;;;17.71;54.24;99737.78;4976631;28;20092;-90
2022/03/31 06:10:11;;;;;;;88.47;18.73;;;;;;;17.45;54.72;99710.28;4964235;28;20097;-87
2022/03/31 06:12:37;;;;;;;49.40;14.48;;;;;;;17.59;54.79;99723.84;4975939;28;20162;-89
2022/03/31 06:15:06;;;;;;;53.90;12.32;;;;;;;17.80;54.38;99744.78;4974469;28;20412;-84
2022/03/31 06:17:32;;;;;;;52.92;14.48;;;;;;;17.91;54.22;99744.28;4973743;28;20381;-83
2022/03/31 06:19:57;;;;;;;65.95;12.23;;;;;;;17.80;54.36;99717.59;4975579;28;20030;-83
2022/03/31 06:22:23;;;;;;;78.90;19.55;;;;;;;17.84;54.76;99749.66;4975312;28;20065;-82
2022/03/31 06:24:48;;;;;;;67.90;14.68;;;;;;;17.75;54.52;99723.63;4974175;28;20033;-81
2022/03/31 06:27:14;;;;;;;59.05;15.38;;;;;;;18.02;54.13;99759.25;4975816;28;20024;-84
2022/03/31 06:29:42;;;;;;;58.20;13.57;;;;;;;18.06;54.36;99757.84;4958084;28;20027;-86
2022/03/31 06:32:08;;;;;;;41.67;15.20;;;;;;;18.01;54.67;99763.84;4974758;28;20495;-85
2022/03/31 06:34:36;;;;;;;49.65;12.85;;;;;;;18.07;54.61;99754.09;4956816;28;20027;-88
2022/03/31 06:37:01;;;;;;;38.17;12.45;;;;;;;17.68;54.26;99678.34;4957606;28;20427;-90
2022/03/31 06:39:27;;;;;;;68.30;15.30;;;;;;;17.62;54.78;99668.25;4959687;28;20041;-86
2022/03/31 06:41:52;;;;;;;66.72;14.32;;;;;;;17.73;54.32;99671.31;4979368;28;20030;-84
2022/03/31 06:44:19;;;;;;;50.63;12.60;;;;;;;18.27;54.18;99758.69;4977428;28;20063;-90
2022/03/31 06:46:46;;;;;;;62.05;15.07;;;;;;;18.34;53.97;99750.56;4974213;28;20090;-81
2022/03/31 06:49:11;;;;;;;46.00;12.23;;;;;;;18.40;53.65;99739.75;4973560;28;20045;-82
2022/03/31 06:51:37;;;;;;;56.72;13.50;;;;;;;18.47;53.51;99740.63;4973064;28;20023;-82
2022/03/31 06:54:03;;;;;;;54.30;13.60;;;;;;;18.58;53.26;99763.81;4956235;28;20026;-83
2022/03/31 06:56:30;;;;;;;59.00;13.32;;;;;;;18.56;53.27;99770.50;4972598;28;20469;-82
2022/03/31 06:58:56;;;;;;;74.80;12.38;;;;;;;18.31;53.08;99737.34;4955739;28;20034;-82
2022/03/31 07:01:23;;;;;;;47.38;13.00;;;;;;;18.52;53.33;99769.19;4973003;28;20477;-81
2022/03/31 07:03:49;;;;;;;52.33;12.05;;;;;;;18.34;53.31;99748.69;4972879;28;20201;-82
2022/03/31 07:06:15;;;;;;;55.13;12.75;;;;;;;18.38;53.65;99754.56;4973540;28;20110;-83
2022/03/31 07:08:40;;;;;;;50.20;13.80;;;;;;;18.49;53.51;99786.78;4973700;28;20030;-83
2022/03/31 07:11:06;;;;;;;49.92;12.68;;;;;;;18.18;53.69;99754.41;4967317;28;20029;-83
2022/03/31 07:13:31;;;;;;;42.58;11.98;;;;;;;18.27;54.08;99766.00;4978133;28;20453;-83
2022/03/31 07:15:57;;;;;;;52.47;12.55;;;;;;;18.30;54.20;99766.47;4974949;28;20106;-83
2022/03/31 07:18:23;;;;;;;50.53;11.82;;;;;;;18.43;53.93;99782.06;4976861;28;20473;-83
2022/03/31 07:20:50;;;;;;;42.03;11.20;;;;;;;18.51;53.79;99767.50;4977706;28;20480;-82
2022/03/31 07:23:18;;;;;;;54.42;14.10;;;;;;;18.08;53.78;99702.19;4978070;28;20053;-82
2022/03/31 07:25:43;;;;;;;46.72;11.30;;;;;;;18.68;53.66;99788.81;4983556;28;20122;-84
2022/03/31 07:28:09;;;;;;;59.47;12.70;;;;;;;18.25;53.50;99719.94;4988900;28;20089;-84
2022/03/31 07:30:34;;;;;;;53.22;10.65;;;;;;;18.64;53.49;99771.19;4978691;28;20416;-83
2022/03/31 07:33:03;;;;;;;55.13;11.55;;;;;;;18.50;53.09;99733.97;4984467;28;20065;-82
2022/03/31 07:35:30;;;;;;;57.72;12.40;;;;;;;18.97;52.82;99796.78;4968885;28;20461;-82
2022/03/31 07:37:57;;;;;;;49.35;12.07;;;;;;;18.70;52.94;99754.06;4986641;28;20070;-83
2022/03/31 07:40:24;;;;;;;58.65;12.63;;;;;;;18.94;52.92;99788.16;4979288;28;20503;-82
2022/03/31 07:42:51;;;;;;;58.08;11.55;;;;;;;19.04;52.84;99788.66;4975386;28;20182;-82
2022/03/31 07:45:17;;;;;;;51.72;12.25;;;;;;;18.76;52.68;99738.78;4975878;28;20567;-82
2022/03/31 07:47:43;;;;;;;52.15;12.77;;;;;;;19.25;52.42;99783.13;4958719;28;20495;-83
2022/03/31 07:50:11;;;;;;;47.90;12.32;;;;;;;19.24;52.36;99764.22;4976093;28;20027;-82
2022/03/31 07:52:38;;;;;;;54.53;12.30;;;;;;;19.28;51.74;99766.38;4975930;28;20019;-83
2022/03/31 07:55:06;;;;;;;43.38;10.90;;;;;;;19.38;51.67;99785.94;4976432;28;20023;-82
2022/03/31 07:57:32;;;;;;;41.65;10.80;;;;;;;19.29;51.94;99778.97;4977244;28;20058;-83
2022/03/31 07:59:58;;;;;;;49.38;11.55;;;;;;;19.43;51.62;99769.84;4976087;28;20035;-83
2022/03/31 08:02:25;;;;;;;64.82;11.85;;;;;;;19.55;51.35;99784.56;4975927;28;20529;-83
2022/03/31 08:04:51;;;;;;;55.70;11.38;;;;;;;19.63;51.39;99796.38;4976115;28;20487;-83
2022/03/31 08:07:17;;;;;;;50.95;12.23;;;;;;;19.62;51.50;99783.75;4976446;28;20041;-83
2022/03/31 08:09:42;;;;;;;50.78;12.00;;;;;;;19.59;51.06;99754.16;4975814;28;20492;-83
2022/03/31 08:12:08;;;;;;;47.95;12.43;;;;;;;19.62;50.86;99756.47;4975936;28;20030;-82
2022/03/31 08:14:34;;;;;;;49.40;12.57;;;;;;;19.69;50.78;99769.13;4975622;28;20026;-82
2022/03/31 08:16:59;;;;;;;42.55;11.52;;;;;;;19.40;51.09;99731.22;4975003;28;20039;-83
2022/03/31 08:19:27;;;;;;;54.05;12.48;;;;;;;19.70;50.72;99764.47;4975431;28;20037;-82
2022/03/31 08:21:53;;;;;;;48.60;10.70;;;;;;;19.79;50.56;99785.06;4957750;28;20034;-83
2022/03/31 08:24:18;;;;;;;44.63;11.13;;;;;;;19.82;50.55;99784.66;4975122;28;20029;-82
2022/03/31 08:26:46;;;;;;;66.97;12.35;;;;;;;19.71;50.35;99761.56;4975162;28;20121;-82
2022/03/31 08:29:11;;;;;;;63.22;12.32;;;;;;;19.78;50.80;99792.44;4975635;28;20039;-82
2022/03/31 08:31:38;;;;;;;46.45;11.68;;;;;;;19.55;51.21;99779.13;4958580;28;20116;-83
2022/03/31 08:34:05;;;;;;;48.25;12.60;;;;;;;19.62;51.23;99765.50;4975970;28;20031;-83
2022/03/31 08:36:31;;;;;;;38.03;10.82;;;;;;;19.59;51.13;99763.19;4978791;28;20041;-83
2022/03/31 08:38:56;;;;;;;39.97;10.70;;;;;;;19.42;50.79;99707.28;4979812;28;20031;-84
2022/03/31 08:41:27;;;;;;;43.00;11.48;;;;;;;19.78;50.79;99756.13;4975013;28;20038;-82
2022/03/31 08:43:54;;;;;;;50.28;12.75;;;;;;;20.05;50.30;99768.78;4974736;28;20073;-84
2022/03/31 08:46:21;;;;;;;45.45;12.48;;;;;;;20.04;50.05;99770.69;4975083;28;20054;-83
2022/03/31 08:48:47;;;;;;;56.67;12.10;;;;;;;20.26;49.41;99768.66;4975920;28;20031;-83
2022/03/31 08:51:12;;;;;;;104.05;13.40;;;;;;;20.34;49.31;99778.50;4957896;28;20038;-82
2022/03/31 08:53:38;;;;;;;39.30;11.68;;;;;;;20.31;49.20;99755.19;4957864;28;20461;-83
2022/03/31 08:56:04;;;;;;;39.28;11.52;;;;;;;20.46;48.86;99761.31;4975241;28;20062;-83
2022/03/31 08:58:30;;;;;;;34.70;9.93;;;;;;;20.47;48.63;99763.00;4978372;28;20077;-82
2022/03/31 09:00:55;;;;;;;51.25;12.10;;;;;;;20.51;48.86;99764.25;4984912;28;20031;-82
2022/03/31 09:03:32;;;;;;;73.28;19.45;;;;;;;20.59;48.59;99744.91;4992844;28;20031;-82
2022/03/31 09:05:58;;;;;;;58.80;12.10;;;;;;;20.54;48.35;99742.00;4987145;28;20029;-82
2022/03/31 09:08:23;;;;;;;58.42;11.23;;;;;;;20.40;48.37;99688.41;4968596;28;20117;-81
2022/03/31 09:10:57;;;;;;;62.92;12.05;;;;;;;20.75;48.18;99743.66;4978216;28;20108;-82
2022/03/31 09:13:31;;;;;;;41.30;9.77;;;;;;;20.76;48.27;99741.75;4975747;28;20027;-84
2022/03/31 09:16:06;;;;;;;47.22;10.38;;;;;;;20.69;48.00;99699.94;4974862;28;20488;-83
2022/03/31 09:18:34;;;;;;;38.35;10.68;;;;;;;20.88;47.78;99721.78;4957432;28;20050;-83
2022/03/31 09:21:01;;;;;;;55.60;10.52;;;;;;;21.05;47.79;99744.00;4974992;28;20096;-83
2022/03/31 09:23:32;;;;;;;50.15;12.05;;;;;;;21.01;47.72;99715.41;4974709;28;20027;-83
2022/03/31 09:26:12;;;;;;;49.08;11.35;;;;;;;21.41;47.28;99738.88;4974085;28;20018;-83
2022/03/31 09:28:39;;;;;;;50.75;11.23;;;;;;;21.41;46.91;99724.34;4974827;28;20026;-83
2022/03/31 09:31:08;;;;;;;60.33;11.52;;;;;;;21.32;46.90;99704.63;4974307;28;20404;-83
2022/03/31 09:33:48;;;;;;;49.30;12.13;;;;;;;21.46;46.71;99702.69;4974465;28;20047;-84
2022/03/31 09:36:15;;;;;;;48.00;10.95;;;;;;;21.59;46.49;99708.91;4974538;28;20023;-83
2022/03/31 09:38:58;;;;;;;55.55;11.63;;;;;;;21.67;46.35;99733.31;4973988;28;20027;-83
2022/03/31 09:41:25;;;;;;;;;;;;;;;21.48;46.84;99723.28;4971425;28;20507;-82
2022/03/31 09:43:53;;;;;;;50.67;12.07;;;;;;;21.17;47.43;99695.84;4973576;28;19922;-83
2022/03/31 09:46:28;;;;;;;51.67;10.48;;;;;;;21.26;47.66;99716.44;4977408;28;20030;-83
2022/03/31 09:48:55;;;;;;;64.53;12.27;;;;;;;20.98;47.55;99672.09;4974462;28;20030;-83
2022/03/31 09:51:23;;;;;;;39.00;10.63;;;;;;;21.32;47.51;99721.03;4958444;28;20042;-83
2022/03/31 09:53:50;;;;;;;66.05;10.95;;;;;;;21.48;47.01;99727.91;4975635;28;20449;-84
2022/03/31 09:56:21;;;;;;;49.30;9.52;;;;;;;21.19;47.28;99688.28;4974425;28;20032;-83
2022/03/31 09:58:47;;;;;;;49.97;11.20;;;;;;;21.20;47.61;99719.19;4974118;28;20031;-83
2022/03/31 10:01:14;;;;;;;55.83;13.65;;;;;;;21.36;47.36;99718.72;4974285;28;20081;-83
2022/03/31 10:03:40;;;;;;;39.10;10.40;;;;;;;21.33;47.17;99708.19;4973959;28;20035;-83
2022/03/31 10:06:06;;;;;;;46.40;10.65;;;;;;;21.21;47.62;99699.00;4973517;28;20033;-84
2022/03/31 10:08:42;;;;;;;49.95;11.85;;;;;;;21.11;47.78;99677.56;4979817;28;20060;-83
2022/03/31 10:11:09;;;;;;;56.75;11.10;;;;;;;21.12;47.77;99679.25;4974261;28;20409;-83
2022/03/31 10:13:42;;;;;;;52.08;12.18;;;;;;;21.11;48.03;99677.56;4973962;28;20034;-83
2022/03/31 10:16:13;;;;;;;50.47;11.70;;;;;;;20.69;48.15;99607.03;4974625;28;20030;-82
2022/03/31 10:18:42;;;;;;;53.72;11.30;;;;;;;20.81;48.42;99616.22;4974470;28;20408;-83
2022/03/31 10:21:08;;;;;;;47.70;12.23;;;;;;;21.12;47.90;99651.91;4975551;28;20035;-83
2022/03/31 10:26:26;;;;;;;44.70;11.40;;;;;;;21.31;47.91;99667.41;4974558;28;20042;-82
2022/03/31 10:29:00;;;;;;;57.00;12.68;;;;;;;21.36;47.67;99669.47;4975498;28;20062;-83
2022/03/31 10:31:39;;;;;;;59.90;12.52;;;;;;;21.00;47.88;99627.13;4975558;28;20115;-83
2022/03/31 10:34:06;;;;;;;58.97;11.48;;;;;;;21.39;47.74;99667.16;4976357;28;20030;-83
2022/03/31 10:36:45;;;;;;;47.50;11.13;;;;;;;21.46;47.34;99681.63;4985713;28;20027;-83
2022/03/31 10:39:24;;;;;;;53.17;11.93;;;;;;;21.51;47.54;99681.81;4992740;28;20042;-83
2022/03/31 10:42:07;;;;;;;81.80;12.98;;;;;;;21.62;47.15;99669.31;4988165;28;20063;-83
2022/03/31 10:44:33;;;;;;;62.70;12.57;;;;;;;21.65;46.95;99660.66;4973951;28;20500;-82
2022/03/31 10:47:08;;;;;;;54.13;11.80;;;;;;;21.55;46.52;99625.59;4973696;28;20046;-83
2022/03/31 10:49:34;;;;;;;56.20;11.55;;;;;;;21.87;46.57;99651.06;4973343;28;20085;-83
2022/03/31 10:52:17;;;;;;;54.45;10.57;;;;;;;21.96;46.66;99635.22;4984928;28;20023;-84
2022/03/31 10:54:43;;;;;;;54.90;10.40;;;;;;;22.14;45.98;99638.03;4986266;28;20516;-82
2022/03/31 10:57:12;;;;;;;51.40;10.18;;;;;;;22.19;45.81;99633.56;4977448;28;20030;-83
2022/03/31 10:59:39;;;;;;;50.92;10.98;;;;;;;22.19;45.41;99610.81;4959929;28;20035;-84
2022/03/31 11:02:11;;;;;;;53.55;10.52;;;;;;;22.37;45.06;99608.13;4977279;28;20030;-84
2022/03/31 11:04:49;;;;;;;50.47;10.15;;;;;;;22.38;45.10;99578.81;4977634;28;20023;-83
2022/03/31 11:07:18;;;;;;;54.83;11.70;;;;;;;22.33;44.79;99568.53;4977130;28;20026;-84
2022/03/31 11:09:45;;;;;;;68.10;11.45;;;;;;;22.38;44.79;99595.25;4977412;28;20499;-84
2022/03/31 11:12:22;;;;;;;62.63;11.18;;;;;;;22.52;44.43;99614.06;4977083;28;20034;-84
2022/03/31 11:15:01;;;;;;;60.08;11.07;;;;;;;22.69;44.10;99612.44;4976617;28;20026;-83
2022/03/31 11:17:28;;;;;;;54.75;11.90;;;;;;;22.56;43.84;99598.88;4976806;28;20492;-83
2022/03/31 11:19:55;;;;;;;53.15;11.75;;;;;;;22.62;43.68;99600.69;4976986;28;20018;-83
2022/03/31 11:22:29;;;;;;;51.25;11.05;;;;;;;22.70;43.67;99610.53;4959723;28;20034;-83